Time,TemperatureF,DewpointF,PressureIn,WindDirection,WindDirectionDegrees,WindSpeedMPH,WindSpeedGustMPH,Humidity,HourlyPrecipIn,Conditions,Clouds,dailyrainin,SolarRadiationWatts/m^2,SoftwareType,DateUTC
2013-10-10 00:03:00,76.5,72.0,29.96,NW,325,1.0,3.0,86,0.00,,,0.00,0,weatherlink.com 1.10,2013-10-10 04:03:00,
2013-10-10 00:18:00,76.2,72.0,29.96,NNW,336,1.0,3.0,86,0.00,,,0.00,0,weatherlink.com 1.10,2013-10-10 04:18:00,
2013-10-10 00:33:00,76.1,72.0,29.96,NW,319,0.0,3.0,87,0.00,,,0.00,0,weatherlink.com 1.10,2013-10-10 04:33:00,
2013-10-10 00:48:00,75.8,72.0,29.96,North,355,0.0,5.0,87,0.00,,,0.00,0,weatherlink.com 1.10,2013-10-10 04:48:00,
2013-10-10 01:03:00,75.8,72.0,29.96,NW,322,0.0,3.0,87,0.00,,,0.00,0,weatherlink.com 1.10,2013-10-10 05:03:00,
2013-10-10 01:18:00,75.7,72.0,29.96,NW,323,0.0,2.0,88,0.00,,,0.00,0,weatherlink.com 1.10,2013-10-10 05:18:00,
2013-10-10 01:33:00,75.6,72.0,29.96,NW,324,0.0,2.0,88,0.00,,,0.00,0,weatherlink.com 1.10,2013-10-10 05:33:00,
2013-10-10 01:48:00,75.5,72.0,29.96,NW,324,0.0,1.0,88,0.00,,,0.00,0,weatherlink.com 1.10,2013-10-10 05:48:00,
2013-10-10 02:03:00,75.6,72.0,29.97,NW,324,0.0,1.0,88,0.00,,,0.00,0,weatherlink.com 1.10,2013-10-10 06:03:00,
2013-10-10 02:18:00,75.6,72.0,29.96,NW,315,0.0,4.0,88,0.00,,,0.00,0,weatherlink.com 1.10,2013-10-10 06:18:00,
2013-10-10 02:33:00,75.6,72.0,29.96,ESE,110,0.0,2.0,89,0.00,,,0.00,0,weatherlink.com 1.10,2013-10-10 06:33:00,
2013-10-10 02:48:00,75.6,72.0,29.96,NNE,21,0.0,3.0,89,0.00,,,0.00,0,weatherlink.com 1.10,2013-10-10 06:48:00,
2013-10-10 03:03:00,75.3,72.0,29.95,NNE,21,0.0,1.0,89,0.00,,,0.00,0,weatherlink.com 1.10,2013-10-10 07:03:00,
2013-10-10 03:18:00,74.9,72.0,29.94,NNE,21,0.0,1.0,90,0.00,,,0.00,0,weatherlink.com 1.10,2013-10-10 07:18:00,
2013-10-10 03:33:00,74.5,72.0,29.94,NNE,21,0.0,0.0,90,0.00,,,0.00,0,weatherlink.com 1.10,2013-10-10 07:33:00,
2013-10-10 03:49:00,74.1,71.0,29.94,NNE,21,0.0,0.0,90,0.00,,,0.00,0,weatherlink.com 1.10,2013-10-10 07:49:00,
2013-10-10 04:04:00,73.8,71.0,29.94,NNE,21,0.0,0.0,91,0.00,,,0.00,0,weatherlink.com 1.10,2013-10-10 08:04:00,
2013-10-10 04:19:00,73.4,71.0,29.94,NNE,21,0.0,0.0,91,0.00,,,0.00,0,weatherlink.com 1.10,2013-10-10 08:19:00,
2013-10-10 04:34:00,73.4,71.0,29.94,NNE,21,0.0,1.0,91,0.00,,,0.00,0,weatherlink.com 1.10,2013-10-10 08:34:00,
2013-10-10 04:49:00,73.1,70.0,29.94,NNE,21,0.0,1.0,91,0.00,,,0.00,0,weatherlink.com 1.10,2013-10-10 08:49:00,
2013-10-10 05:04:00,72.8,70.0,29.94,NNE,21,0.0,1.0,92,0.00,,,0.00,0,weatherlink.com 1.10,2013-10-10 09:04:00,
2013-10-10 05:19:00,72.5,70.0,29.94,NNE,21,0.0,1.0,92,0.00,,,0.00,0,weatherlink.com 1.10,2013-10-10 09:19:00,
2013-10-10 05:34:00,72.3,70.0,29.94,NNE,21,0.0,1.0,92,0.00,,,0.00,0,weatherlink.com 1.10,2013-10-10 09:34:00,
2013-10-10 05:49:00,72.1,70.0,29.94,NNE,21,0.0,1.0,92,0.00,,,0.00,0,weatherlink.com 1.10,2013-10-10 09:49:00,
2013-10-10 06:04:00,71.9,70.0,29.94,NNE,21,0.0,1.0,92,0.00,,,0.00,0,weatherlink.com 1.10,2013-10-10 10:04:00,
2013-10-10 06:19:00,71.8,69.0,29.95,NNE,21,0.0,1.0,92,0.01,,,0.01,0,weatherlink.com 1.10,2013-10-10 10:19:00,
2013-10-10 06:34:00,71.6,69.0,29.95,NNE,21,0.0,0.0,92,0.01,,,0.01,0,weatherlink.com 1.10,2013-10-10 10:34:00,
2013-10-10 06:49:00,71.3,69.0,29.95,NNE,21,0.0,1.0,92,0.01,,,0.01,0,weatherlink.com 1.10,2013-10-10 10:49:00,
2013-10-10 07:04:00,71.1,69.0,29.95,NNE,21,0.0,0.0,92,0.01,,,0.01,0,weatherlink.com 1.10,2013-10-10 11:04:00,
2013-10-10 07:19:00,71.0,69.0,29.96,NNE,21,0.0,1.0,93,0.00,,,0.01,0,weatherlink.com 1.10,2013-10-10 11:19:00,
2013-10-10 07:34:00,70.8,69.0,29.96,NNE,21,0.0,0.0,93,0.00,,,0.01,12,weatherlink.com 1.10,2013-10-10 11:34:00,
2013-10-10 07:49:00,71.5,69.0,29.96,North,5,0.0,3.0,93,0.00,,,0.01,58,weatherlink.com 1.10,2013-10-10 11:49:00,
2013-10-10 08:04:00,72.4,70.0,29.96,NNW,348,0.0,3.0,93,0.00,,,0.01,107,weatherlink.com 1.10,2013-10-10 12:04:00,
2013-10-10 08:19:00,74.4,72.0,29.96,NNW,344,0.0,2.0,92,0.00,,,0.01,156,weatherlink.com 1.10,2013-10-10 12:19:00,
2013-10-10 08:34:00,76.6,73.0,29.97,NNW,340,0.0,3.0,88,0.00,,,0.01,202,weatherlink.com 1.10,2013-10-10 12:34:00,
2013-10-10 08:49:00,78.2,73.0,29.97,North,360,1.0,3.0,85,0.00,,,0.01,251,weatherlink.com 1.10,2013-10-10 12:49:00,
2013-10-10 09:04:00,79.2,73.0,29.98,NW,312,0.0,2.0,82,0.00,,,0.01,315,weatherlink.com 1.10,2013-10-10 13:04:00,
2013-10-10 09:19:00,80.5,74.0,29.98,NW,325,0.0,4.0,80,0.00,,,0.01,380,weatherlink.com 1.10,2013-10-10 13:19:00,
2013-10-10 09:34:00,80.9,74.0,29.98,NNW,331,0.0,3.0,80,0.00,,,0.01,431,weatherlink.com 1.10,2013-10-10 13:34:00,
2013-10-10 09:50:00,82.3,74.0,29.98,North,360,1.0,4.0,77,0.00,,,0.01,480,weatherlink.com 1.10,2013-10-10 13:50:00,
2013-10-10 10:05:00,83.8,75.0,29.99,North,360,1.0,3.0,75,0.00,,,0.01,526,weatherlink.com 1.10,2013-10-10 14:05:00,
2013-10-10 10:20:00,83.8,74.0,29.99,North,360,3.0,6.0,73,0.00,,,0.01,568,weatherlink.com 1.10,2013-10-10 14:20:00,
2013-10-10 10:35:00,83.8,74.0,29.99,North,355,1.0,4.0,73,0.00,,,0.01,142,weatherlink.com 1.10,2013-10-10 14:35:00,
2013-10-10 10:50:00,83.4,74.0,29.99,East,101,3.0,4.0,73,0.00,,,0.01,255,weatherlink.com 1.10,2013-10-10 14:50:00,
2013-10-10 11:06:00,83.4,74.0,30.00,East,89,7.0,7.0,72,0.00,,,0.01,705,weatherlink.com 1.10,2013-10-10 15:06:00,
2013-10-10 11:20:00,82.6,73.0,30.00,ESE,103,4.0,7.0,73,0.00,,,0.01,831,weatherlink.com 1.10,2013-10-10 15:20:00,
2013-10-10 11:35:00,84.3,75.0,30.00,East,96,4.0,9.0,73,0.00,,,0.01,800,weatherlink.com 1.10,2013-10-10 15:35:00,
2013-10-10 11:50:00,83.9,74.0,29.99,East,94,2.0,7.0,72,0.00,,,0.01,849,weatherlink.com 1.10,2013-10-10 15:50:00,
2013-10-10 12:05:00,83.9,74.0,29.99,NNE,29,2.0,6.0,72,0.00,,,0.01,248,weatherlink.com 1.10,2013-10-10 16:05:00,
2013-10-10 12:20:00,83.7,75.0,29.99,NNE,27,3.0,10.0,74,0.00,,,0.01,1044,weatherlink.com 1.10,2013-10-10 16:20:00,
2013-10-10 12:35:00,83.2,74.0,29.98,NE,51,3.0,11.0,73,0.00,,,0.01,197,weatherlink.com 1.10,2013-10-10 16:35:00,
2013-10-10 12:50:00,83.6,73.0,29.98,NE,36,4.0,10.0,70,0.00,,,0.01,313,weatherlink.com 1.10,2013-10-10 16:50:00,
2013-10-10 13:05:00,84.3,74.0,29.98,East,89,5.0,11.0,71,0.00,,,0.01,984,weatherlink.com 1.10,2013-10-10 17:05:00,
2013-10-10 13:20:00,84.0,73.0,29.97,ESE,113,6.0,9.0,69,0.00,,,0.01,895,weatherlink.com 1.10,2013-10-10 17:20:00,
2013-10-10 13:35:00,84.5,73.0,29.97,East,98,2.0,11.0,69,0.00,,,0.01,930,weatherlink.com 1.10,2013-10-10 17:35:00,
2013-10-10 13:50:00,84.8,73.0,29.96,ENE,57,2.0,8.0,67,0.00,,,0.01,188,weatherlink.com 1.10,2013-10-10 17:50:00,
2013-10-10 14:05:00,85.1,73.0,29.96,WSW,243,2.0,8.0,67,0.00,,,0.01,923,weatherlink.com 1.10,2013-10-10 18:05:00,
2013-10-10 14:20:00,84.5,72.0,29.95,ENE,71,6.0,13.0,67,0.00,,,0.01,193,weatherlink.com 1.10,2013-10-10 18:20:00,
2013-10-10 14:35:00,85.1,72.0,29.94,ENE,76,2.0,7.0,65,0.00,,,0.01,826,weatherlink.com 1.10,2013-10-10 18:35:00,
2013-10-10 14:50:00,84.8,73.0,29.93,ENE,68,3.0,9.0,67,0.00,,,0.01,784,weatherlink.com 1.10,2013-10-10 18:50:00,
2013-10-10 15:05:00,84.2,72.0,29.93,NNE,26,2.0,10.0,67,0.00,,,0.01,287,weatherlink.com 1.10,2013-10-10 19:05:00,
2013-10-10 15:20:00,84.6,72.0,29.93,North,360,5.0,8.0,66,0.00,,,0.01,737,weatherlink.com 1.10,2013-10-10 19:20:00,
2013-10-10 15:35:00,84.2,72.0,29.93,East,98,4.0,10.0,66,0.00,,,0.01,671,weatherlink.com 1.10,2013-10-10 19:35:00,
2013-10-10 15:50:00,84.8,72.0,29.93,East,88,4.0,11.0,65,0.00,,,0.01,628,weatherlink.com 1.10,2013-10-10 19:50:00,
2013-10-10 16:05:00,84.3,71.0,29.93,ENE,68,9.0,9.0,64,0.00,,,0.01,552,weatherlink.com 1.10,2013-10-10 20:05:00,
2013-10-10 16:20:00,84.0,71.0,29.93,SSE,151,2.0,10.0,66,0.00,,,0.01,519,weatherlink.com 1.10,2013-10-10 20:20:00,
2013-10-10 16:35:00,83.8,73.0,29.94,NE,55,3.0,10.0,69,0.00,,,0.01,483,weatherlink.com 1.10,2013-10-10 20:35:00,
2013-10-10 16:50:00,83.3,72.0,29.93,North,355,2.0,8.0,69,0.00,,,0.01,420,weatherlink.com 1.10,2013-10-10 20:50:00,
2013-10-10 17:05:00,83.4,72.0,29.93,North,360,3.0,8.0,69,0.00,,,0.01,422,weatherlink.com 1.10,2013-10-10 21:05:00,
2013-10-10 17:20:00,82.6,72.0,29.94,NE,41,2.0,8.0,70,0.00,,,0.01,348,weatherlink.com 1.10,2013-10-10 21:20:00,
2013-10-10 17:35:00,82.2,72.0,29.94,NE,42,5.0,11.0,70,0.00,,,0.01,67,weatherlink.com 1.10,2013-10-10 21:35:00,
2013-10-10 17:50:00,82.1,72.0,29.94,East,98,3.0,6.0,71,0.00,,,0.01,47,weatherlink.com 1.10,2013-10-10 21:50:00,
2013-10-10 18:05:00,81.7,71.0,29.94,North,11,3.0,8.0,70,0.00,,,0.01,49,weatherlink.com 1.10,2013-10-10 22:05:00,
2013-10-10 18:20:00,81.4,71.0,29.95,ESE,115,1.0,8.0,71,0.00,,,0.01,39,weatherlink.com 1.10,2013-10-10 22:20:00,
2013-10-10 18:35:00,81.0,71.0,29.94,NE,51,3.0,10.0,71,0.00,,,0.01,16,weatherlink.com 1.10,2013-10-10 22:35:00,
2013-10-10 18:50:00,80.6,71.0,29.95,NNE,28,2.0,4.0,72,0.00,,,0.01,7,weatherlink.com 1.10,2013-10-10 22:50:00,
2013-10-10 19:05:00,80.2,70.0,29.95,NNE,28,2.0,6.0,72,0.00,,,0.01,0,weatherlink.com 1.10,2013-10-10 23:05:00,
2013-10-10 19:20:00,80.0,71.0,29.95,NE,38,3.0,5.0,73,0.00,,,0.01,0,weatherlink.com 1.10,2013-10-10 23:20:00,
2013-10-10 19:35:00,79.9,71.0,29.95,East,84,1.0,4.0,73,0.00,,,0.01,0,weatherlink.com 1.10,2013-10-10 23:35:00,
2013-10-10 19:50:00,79.7,71.0,29.96,NNE,22,0.0,3.0,74,0.00,,,0.01,0,weatherlink.com 1.10,2013-10-10 23:50:00,
2013-10-10 20:05:00,79.5,71.0,29.96,East,101,1.0,4.0,74,0.00,,,0.01,0,weatherlink.com 1.10,2013-10-11 00:05:00,
2013-10-10 20:20:00,79.4,70.0,29.96,NE,34,4.0,4.0,74,0.00,,,0.01,0,weatherlink.com 1.10,2013-10-11 00:20:00,
2013-10-10 20:35:00,79.3,70.0,29.97,NNE,13,1.0,3.0,73,0.00,,,0.01,0,weatherlink.com 1.10,2013-10-11 00:35:00,
2013-10-10 20:50:00,79.2,70.0,29.97,NNW,347,1.0,3.0,73,0.00,,,0.01,0,weatherlink.com 1.10,2013-10-11 00:50:00,
2013-10-10 21:05:00,78.9,70.0,29.97,NE,54,0.0,3.0,73,0.00,,,0.01,0,weatherlink.com 1.10,2013-10-11 01:05:00,
2013-10-10 21:20:00,78.9,70.0,29.98,NW,306,0.0,2.0,74,0.00,,,0.01,0,weatherlink.com 1.10,2013-10-11 01:20:00,
2013-10-10 21:35:00,79.4,70.0,29.98,North,360,2.0,4.0,74,0.00,,,0.01,0,weatherlink.com 1.10,2013-10-11 01:35:00,
2013-10-10 21:50:00,79.4,70.0,29.98,East,92,1.0,6.0,74,0.00,,,0.01,0,weatherlink.com 1.10,2013-10-11 01:50:00,
2013-10-10 22:05:00,79.2,70.0,29.98,ESE,107,2.0,4.0,73,0.00,,,0.01,0,weatherlink.com 1.10,2013-10-11 02:05:00,
2013-10-10 22:20:00,79.1,70.0,29.98,ENE,77,2.0,3.0,74,0.00,,,0.01,0,weatherlink.com 1.10,2013-10-11 02:20:00,
2013-10-10 22:35:00,78.7,70.0,29.99,East,101,1.0,2.0,74,0.00,,,0.01,0,weatherlink.com 1.10,2013-10-11 02:35:00,
2013-10-10 22:50:00,78.3,69.0,29.98,ENE,69,0.0,1.0,73,0.00,,,0.01,0,weatherlink.com 1.10,2013-10-11 02:50:00,
2013-10-10 23:05:00,78.0,69.0,29.98,ENE,69,0.0,1.0,73,0.00,,,0.01,0,weatherlink.com 1.10,2013-10-11 03:05:00,
2013-10-10 23:20:00,77.6,69.0,29.98,ENE,68,0.0,1.0,74,0.00,,,0.01,0,weatherlink.com 1.10,2013-10-11 03:20:00,
2013-10-10 23:35:00,77.3,69.0,29.97,NE,38,0.0,1.0,75,0.00,,,0.01,0,weatherlink.com 1.10,2013-10-11 03:35:00,
2013-10-10 23:50:00,76.8,69.0,29.97,NE,38,0.0,1.0,76,0.00,,,0.01,0,weatherlink.com 1.10,2013-10-11 03:50:00,